createdAt,value
2017-12-30T00:07:51.202Z,0
2017-12-30T00:17:51.240Z,0
2017-12-30T00:27:51.157Z,0
2017-12-30T00:37:51.129Z,0
2017-12-30T00:47:57.700Z,0
2017-12-30T00:57:51.148Z,0
2017-12-30T01:07:51.199Z,0
2017-12-30T01:17:51.196Z,0
2017-12-30T01:27:51.257Z,0
2017-12-30T01:37:51.179Z,0
2017-12-30T01:47:51.257Z,0
2017-12-30T01:57:51.212Z,0
2017-12-30T02:07:51.179Z,0
2017-12-30T02:17:51.274Z,0
2017-12-30T02:27:51.205Z,0
2017-12-30T02:37:51.261Z,0
2017-12-30T02:47:51.199Z,0
2017-12-30T02:57:51.278Z,0
2017-12-30T03:07:51.267Z,0
2017-12-30T03:17:51.309Z,0
2017-12-30T03:27:51.270Z,0
2017-12-30T03:37:51.341Z,0
2017-12-30T03:47:51.258Z,0
2017-12-30T03:57:51.317Z,0
2017-12-30T04:07:51.338Z,0
2017-12-30T04:17:51.286Z,0
2017-12-30T04:27:51.358Z,0
2017-12-30T04:37:51.316Z,0
2017-12-30T04:47:51.373Z,0
2017-12-30T04:57:51.328Z,0
2017-12-30T05:07:51.437Z,0
2017-12-30T05:17:51.367Z,0
2017-12-30T05:27:51.434Z,0
2017-12-30T05:37:51.300Z,0
2017-12-30T05:47:51.477Z,0
2017-12-30T05:57:51.398Z,0
2017-12-30T06:07:51.509Z,0
2017-12-30T06:17:51.443Z,0
2017-12-30T06:27:51.372Z,0
2017-12-30T06:37:51.467Z,0
2017-12-30T06:47:51.405Z,0
2017-12-30T06:57:51.455Z,0
2017-12-30T07:07:51.437Z,0
2017-12-30T07:17:51.495Z,4
2017-12-30T07:27:51.484Z,12
2017-12-30T07:37:51.510Z,40
2017-12-30T07:47:51.485Z,76
2017-12-30T07:57:51.519Z,188
2017-12-30T08:07:51.506Z,300
2017-12-30T08:17:51.552Z,444
2017-12-30T08:27:51.542Z,600
2017-12-30T08:37:51.588Z,592
2017-12-30T08:47:51.583Z,1320
2017-12-30T08:57:51.530Z,1444
2017-12-30T09:07:51.564Z,2244
2017-12-30T09:17:51.538Z,2500
2017-12-30T09:27:51.602Z,2280
2017-12-30T09:37:51.561Z,2096
2017-12-30T09:47:51.639Z,1860
2017-12-30T09:57:51.569Z,2452
2017-12-30T10:07:51.683Z,2552
2017-12-30T10:17:51.562Z,2172
2017-12-30T10:27:51.695Z,2860
2017-12-30T10:37:51.830Z,2984
2017-12-30T10:47:51.638Z,2536
2017-12-30T10:57:51.644Z,1840
2017-12-30T11:07:51.666Z,1884
2017-12-30T11:17:51.698Z,2808
2017-12-30T11:27:51.632Z,1280
2017-12-30T11:37:51.734Z,1380
2017-12-30T11:47:51.744Z,1420
2017-12-30T11:57:51.754Z,2396
2017-12-30T12:07:51.779Z,2240
2017-12-30T12:17:51.688Z,3972
2017-12-30T12:27:51.789Z,1508
2017-12-30T12:37:51.686Z,1812
2017-12-30T12:47:52.094Z,1180
2017-12-30T12:57:51.756Z,1984
2017-12-30T13:07:51.708Z,3080
2017-12-30T13:17:51.750Z,2052
2017-12-30T13:27:51.792Z,2420
2017-12-30T13:37:51.745Z,2080
2017-12-30T13:47:51.789Z,2740
2017-12-30T13:57:51.791Z,2200
2017-12-30T14:07:51.767Z,2040
2017-12-30T14:17:51.775Z,1768
2017-12-30T14:27:51.774Z,1260
2017-12-30T14:37:51.780Z,956
2017-12-30T14:47:51.820Z,1032
2017-12-30T14:57:51.837Z,892
2017-12-30T15:07:51.840Z,464
2017-12-30T15:17:51.830Z,284
2017-12-30T15:27:51.939Z,92
2017-12-30T15:37:51.805Z,44
2017-12-30T15:47:51.833Z,12
2017-12-30T15:57:51.883Z,0
2017-12-30T16:07:51.884Z,0
2017-12-30T16:17:51.930Z,0
2017-12-30T16:27:51.987Z,0
2017-12-30T16:37:51.881Z,0
2017-12-30T16:47:51.885Z,0
2017-12-30T16:57:51.872Z,0
2017-12-30T17:07:52.018Z,4
2017-12-30T17:17:51.928Z,4
2017-12-30T17:27:51.911Z,0
2017-12-30T17:37:51.975Z,0
2017-12-30T17:47:52.080Z,0
2017-12-30T17:57:52.590Z,0
2017-12-30T18:07:51.984Z,0
2017-12-30T18:17:52.010Z,0
2017-12-30T18:27:51.991Z,0
2017-12-30T18:37:51.999Z,0
2017-12-30T18:47:52.013Z,0
2017-12-30T18:57:52.045Z,0
2017-12-30T19:07:52.018Z,0
2017-12-30T19:17:52.081Z,0
2017-12-30T19:27:52.153Z,0
2017-12-30T19:38:03.078Z,0
2017-12-30T19:47:52.134Z,0
2017-12-30T19:57:54.140Z,0
2017-12-30T20:07:52.363Z,0
2017-12-30T20:17:52.671Z,0
2017-12-30T20:27:52.709Z,0
2017-12-30T20:37:52.826Z,0
2017-12-30T20:47:52.132Z,0
2017-12-30T20:57:52.641Z,0
2017-12-30T21:07:52.466Z,0
2017-12-30T21:17:52.412Z,0
2017-12-30T21:27:52.635Z,0
2017-12-30T21:37:52.409Z,0
2017-12-30T21:47:52.505Z,0
2017-12-30T21:57:52.221Z,0
2017-12-30T22:07:52.190Z,0
2017-12-30T22:17:52.222Z,0
2017-12-30T22:27:52.334Z,0
2017-12-30T22:37:52.163Z,0
2017-12-30T22:47:52.203Z,0
2017-12-30T22:57:52.223Z,0
2017-12-30T23:07:52.272Z,0
2017-12-30T23:17:52.333Z,0
2017-12-30T23:27:52.255Z,0
2017-12-30T23:37:52.243Z,0
2017-12-30T23:47:52.353Z,0
2017-12-30T23:57:52.307Z,0
